Morning Celine — 3FMC5 — position and weather

sailwx.info

Track history (hours):
 
Tides and Currents Weather Stations Pressure Air Temp Water Temp Dewpoint Dewpoint Depression Visibility Wind Speed Wind Dir Waves Ship Positions

Morning Celine

Last reported at 2018-Feb-15 20:30 UTC. Time now 2018-Feb-19 18:10 UTC.
Position N 25°11' E 123°36'.

Length 199 m; draft 7.8 m.

Type: Cargo ship. MMSI: 356956000.

Date/timePositionNaut miles runAvg speedWind from/ knotsBaromVisibWave heightAir tempDewpointWater temp
2018-Feb-15 20:30N 25°11' E 123°36'917.5
2018-Feb-15 20:00N 25°04' E 123°32'917.9
2018-Feb-15 19:31N 24°55' E 123°28'918.4
2018-Feb-15 19:00N 24°47' E 123°24'918.1
2018-Feb-15 18:30N 24°39' E 123°20'917.5
2018-Feb-15 18:00N 24°31' E 123°16'917.8
2018-Feb-15 17:31N 24°23' E 123°12'917.9
2018-Feb-15 17:00N 24°14' E 123°08'918.2
2018-Feb-15 16:30N 24°06' E 123°04'918.4
2018-Feb-15 16:00N 23°58' E 122°60'918.4
2018-Feb-15 15:31N 23°49' E 122°56'918.3
2018-Feb-15 15:00N 23°41' E 122°52'7619.0
2018-Feb-15 11:00N 22°31' E 122°19'  
2018-Feb-11 01:50N 01°16' E 104°13'717.2
2018-Feb-11 01:27N 01°15' E 104°06'716.6
2018-Feb-11 01:00N 01°14' E 103°59'815.2
2018-Feb-11 00:30N 01°11' E 103°52'4 7.7
2018-Feb-11 00:00N 01°12' E 103°48'510.5
2018-Feb-10 23:31N 01°17' E 103°45'1 1.5
2018-Feb-10 22:58N 01°17' E 103°45'0 0.0
2018-Feb-10 22:28N 01°17' E 103°45'0 0.0
2018-Feb-10 21:58N 01°17' E 103°45'0 0.0
2018-Feb-10 21:28N 01°17' E 103°45'0 0.0
2018-Feb-10 20:58N 01°17' E 103°45'0 0.0
2018-Feb-10 20:25N 01°17' E 103°45'0 0.0
2018-Feb-10 19:58N 01°17' E 103°45'0 0.0
2018-Feb-10 19:28N 01°17' E 103°45'0 0.0
2018-Feb-10 18:58N 01°17' E 103°45'0 0.0
2018-Feb-10 18:28N 01°17' E 103°45'0 0.0
2018-Feb-10 17:52N 01°17' E 103°45'0 0.0
2018-Feb-10 17:22N 01°17' E 103°45'0 0.0
2018-Feb-10 16:58N 01°17' E 103°45'0 0.0
2018-Feb-10 16:28N 01°17' E 103°45'0 0.0
2018-Feb-10 15:58N 01°17' E 103°45'0 0.0
2018-Feb-10 15:22N 01°17' E 103°45'0 0.0
2018-Feb-10 14:58N 01°17' E 103°45'0 0.0
2018-Feb-10 14:28N 01°17' E 103°45'0 0.0
2018-Feb-10 13:58N 01°17' E 103°45'1 1.5
2018-Feb-10 13:30N 01°17' E 103°45'4 8.1
2018-Feb-10 13:00N 01°14' E 103°48'4 7.1
2018-Feb-10 12:30N 01°13' E 103°51'4 8.1
2018-Feb-10 11:59N 01°16' E 103°53'0 0.2
2018-Feb-10 11:26N 01°16' E 103°53'0 0.0
2018-Feb-10 10:59N 01°16' E 103°53'0 0.0
2018-Feb-10 10:26N 01°16' E 103°53'0 0.1
2018-Feb-10 09:56N 01°16' E 103°53'0 0.1
2018-Feb-10 09:26N 01°16' E 103°53'0 0.1
2018-Feb-10 08:56N 01°16' E 103°53'0 0.1
2018-Feb-10 08:14N 01°16' E 103°53'0 0.2
2018-Feb-10 07:59N 01°16' E 103°53'0 0.0
2018-Feb-10 07:26N 01°16' E 103°53'0 0.0
2018-Feb-10 06:59N 01°16' E 103°53'0 0.1
2018-Feb-10 06:29N 01°16' E 103°53'0 0.1
2018-Feb-10 05:59N 01°16' E 103°53'0 0.0
2018-Feb-10 05:23N 01°16' E 103°53'0 0.1
2018-Feb-10 04:59N 01°16' E 103°53'0 0.1
2018-Feb-10 04:29N 01°16' E 103°53'0 0.0
2018-Feb-10 03:50N 01°16' E 103°53'0 0.0
2018-Feb-10 03:20N 01°16' E 103°53'0 0.0
2018-Feb-10 02:59N 01°16' E 103°53'0 0.1
2018-Feb-10 02:20N 01°16' E 103°53'0 0.2
2018-Feb-10 01:56N 01°16' E 103°53'0 0.1
2018-Feb-10 01:30N 01°16' E 103°53'0 0.1
2018-Feb-10 00:56N 01°16' E 103°53'0 0.1
2018-Feb-10 00:30N 01°16' E 103°53'2 3.5
2018-Feb-10 00:00N 01°14' E 103°53'4 8.8
2018-Feb-09 23:30N 01°12' E 103°49'5 9.4
2018-Feb-09 23:00N 01°15' E 103°46'2 9.5
2018-Feb-09 22:46N 01°14' E 103°43'9 7.1
2018-Feb-09 21:30N 01°12' E 103°35'8 7.6
2018-Feb-09 20:30N 01°10' E 103°27'  
Track history (hours):
 
Tides and Currents Weather Stations Pressure Air Temp Water Temp Dewpoint Dewpoint Depression Visibility Wind Speed Wind Dir Waves Ship Positions

Morning Celine

Last reported at 2018-Feb-15 20:30 UTC. Time now 2018-Feb-19 18:10 UTC.
Position N 25°11' E 123°36'.

Length 199 m; draft 7.8 m.

Type: Cargo ship. MMSI: 356956000.

Date/timePositionNaut miles runAvg speedWind from/ knotsBaromVisibWave heightAir tempDewpointWater temp
2018-Feb-15 20:30N 25°11' E 123°36'917.5
2018-Feb-15 20:00N 25°04' E 123°32'917.9
2018-Feb-15 19:31N 24°55' E 123°28'918.4
2018-Feb-15 19:00N 24°47' E 123°24'918.1
2018-Feb-15 18:30N 24°39' E 123°20'917.5
2018-Feb-15 18:00N 24°31' E 123°16'917.8
2018-Feb-15 17:31N 24°23' E 123°12'917.9
2018-Feb-15 17:00N 24°14' E 123°08'918.2
2018-Feb-15 16:30N 24°06' E 123°04'918.4
2018-Feb-15 16:00N 23°58' E 122°60'918.4
2018-Feb-15 15:31N 23°49' E 122°56'918.3
2018-Feb-15 15:00N 23°41' E 122°52'7619.0
2018-Feb-15 11:00N 22°31' E 122°19'  
2018-Feb-11 01:50N 01°16' E 104°13'717.2
2018-Feb-11 01:27N 01°15' E 104°06'716.6
2018-Feb-11 01:00N 01°14' E 103°59'815.2
2018-Feb-11 00:30N 01°11' E 103°52'4 7.7
2018-Feb-11 00:00N 01°12' E 103°48'510.5
2018-Feb-10 23:31N 01°17' E 103°45'1 1.5
2018-Feb-10 22:58N 01°17' E 103°45'0 0.0
2018-Feb-10 22:28N 01°17' E 103°45'0 0.0
2018-Feb-10 21:58N 01°17' E 103°45'0 0.0
2018-Feb-10 21:28N 01°17' E 103°45'0 0.0
2018-Feb-10 20:58N 01°17' E 103°45'0 0.0
2018-Feb-10 20:25N 01°17' E 103°45'0 0.0
2018-Feb-10 19:58N 01°17' E 103°45'0 0.0
2018-Feb-10 19:28N 01°17' E 103°45'0 0.0
2018-Feb-10 18:58N 01°17' E 103°45'0 0.0
2018-Feb-10 18:28N 01°17' E 103°45'0 0.0
2018-Feb-10 17:52N 01°17' E 103°45'0 0.0
2018-Feb-10 17:22N 01°17' E 103°45'0 0.0
2018-Feb-10 16:58N 01°17' E 103°45'0 0.0
2018-Feb-10 16:28N 01°17' E 103°45'0 0.0
2018-Feb-10 15:58N 01°17' E 103°45'0 0.0
2018-Feb-10 15:22N 01°17' E 103°45'0 0.0
2018-Feb-10 14:58N 01°17' E 103°45'0 0.0
2018-Feb-10 14:28N 01°17' E 103°45'0 0.0
2018-Feb-10 13:58N 01°17' E 103°45'1 1.5
2018-Feb-10 13:30N 01°17' E 103°45'4 8.1
2018-Feb-10 13:00N 01°14' E 103°48'4 7.1
2018-Feb-10 12:30N 01°13' E 103°51'4 8.1
2018-Feb-10 11:59N 01°16' E 103°53'0 0.2
2018-Feb-10 11:26N 01°16' E 103°53'0 0.0
2018-Feb-10 10:59N 01°16' E 103°53'0 0.0
2018-Feb-10 10:26N 01°16' E 103°53'0 0.1
2018-Feb-10 09:56N 01°16' E 103°53'0 0.1
2018-Feb-10 09:26N 01°16' E 103°53'0 0.1
2018-Feb-10 08:56N 01°16' E 103°53'0 0.1
2018-Feb-10 08:14N 01°16' E 103°53'0 0.2
2018-Feb-10 07:59N 01°16' E 103°53'0 0.0
2018-Feb-10 07:26N 01°16' E 103°53'0 0.0
2018-Feb-10 06:59N 01°16' E 103°53'0 0.1
2018-Feb-10 06:29N 01°16' E 103°53'0 0.1
2018-Feb-10 05:59N 01°16' E 103°53'0 0.0
2018-Feb-10 05:23N 01°16' E 103°53'0 0.1
2018-Feb-10 04:59N 01°16' E 103°53'0 0.1
2018-Feb-10 04:29N 01°16' E 103°53'0 0.0
2018-Feb-10 03:50N 01°16' E 103°53'0 0.0
2018-Feb-10 03:20N 01°16' E 103°53'0 0.0
2018-Feb-10 02:59N 01°16' E 103°53'0 0.1
2018-Feb-10 02:20N 01°16' E 103°53'0 0.2
2018-Feb-10 01:56N 01°16' E 103°53'0 0.1
2018-Feb-10 01:30N 01°16' E 103°53'0 0.1
2018-Feb-10 00:56N 01°16' E 103°53'0 0.1
2018-Feb-10 00:30N 01°16' E 103°53'2 3.5
2018-Feb-10 00:00N 01°14' E 103°53'4 8.8
2018-Feb-09 23:30N 01°12' E 103°49'5 9.4
2018-Feb-09 23:00N 01°15' E 103°46'2 9.5
2018-Feb-09 22:46N 01°14' E 103°43'9 7.1
2018-Feb-09 21:30N 01°12' E 103°35'8 7.6
2018-Feb-09 20:30N 01°10' E 103°27'  

Dump ship's entire track history